Time;durP1;ratioP1;P1;durP2;ratioP2;P2;SDS_P1;SDS_P2;PMS_P1;PMS_P2;Temp;Humidity;BMP_temperature;BMP_pressure;BME280_temperature;BME280_humidity;BME280_pressure;Samples;Min_cycle;Max_cycle;Signal;HPM_P1;HPM_P2
2023/12/09 00:01:11;;;;;;;23.00;16.10;;;;;;;4.07;100.00;152409.66;5052280;28;20443;-81
2023/12/09 00:03:37;;;;;;;22.47;17.73;;;;;;;4.07;100.00;152408.38;5051388;28;20462;-81
2023/12/09 00:06:05;;;;;;;22.73;16.97;;;;;;;4.09;100.00;152413.50;5050957;28;20801;-81
2023/12/09 00:08:31;;;;;;;25.07;16.00;;;;;;;4.11;100.00;152418.66;5052313;28;20561;-81
2023/12/09 00:10:58;;;;;;;22.67;16.83;;;;;;;4.12;100.00;152421.25;5051203;28;20496;-81
2023/12/09 00:13:24;;;;;;;21.70;16.20;;;;;;;4.10;100.00;152417.34;5051009;28;20835;-81
2023/12/09 00:15:52;;;;;;;22.57;16.90;;;;;;;4.11;100.00;152418.66;5051442;28;20445;-81
2023/12/09 00:18:19;;;;;;;19.30;15.00;;;;;;;4.09;100.00;152414.81;5054298;28;20804;-80
2023/12/09 00:20:45;;;;;;;22.37;15.00;;;;;;;4.11;100.00;152419.94;5050961;28;20463;-80
2023/12/09 00:23:12;;;;;;;19.20;14.73;;;;;;;4.12;100.00;152422.53;5049493;28;20447;-80
2023/12/09 00:25:39;;;;;;;25.20;17.67;;;;;;;4.15;100.00;152428.97;5049924;28;20477;-81
2023/12/09 00:28:07;;;;;;;19.53;15.43;;;;;;;4.15;100.00;152428.97;5049416;28;20450;-80
2023/12/09 00:30:34;;;;;;;20.00;15.20;;;;;;;4.13;100.00;152425.09;5049270;28;21527;-81
2023/12/09 00:33:02;;;;;;;16.80;13.07;;;;;;;4.14;100.00;152426.38;5048137;28;20466;-81
2023/12/09 00:35:28;;;;;;;23.50;15.90;;;;;;;4.15;100.00;152428.97;5048543;28;20466;-81
2023/12/09 00:37:55;;;;;;;17.93;14.33;;;;;;;4.18;100.00;152436.72;5048818;28;20521;-81
2023/12/09 00:40:22;;;;;;;18.87;14.27;;;;;;;4.13;100.00;152423.84;5049488;28;20434;-81
2023/12/09 00:42:49;;;;;;;23.20;15.77;;;;;;;4.14;100.00;152426.38;5044051;28;20457;-81
2023/12/09 00:45:15;;;;;;;16.70;13.30;;;;;;;4.15;100.00;152430.28;5049922;28;20903;-81
2023/12/09 00:47:42;;;;;;;21.50;15.30;;;;;;;4.22;100.00;152448.28;5051137;28;20443;-81
2023/12/09 00:50:10;;;;;;;19.43;14.20;;;;;;;4.22;100.00;152447.00;5048499;28;20438;-81
2023/12/09 00:52:37;;;;;;;17.70;11.90;;;;;;;4.20;100.00;152441.84;5071091;28;20932;-81
2023/12/09 00:55:05;;;;;;;17.20;12.10;;;;;;;4.19;100.00;152439.25;5049811;28;20492;-81
2023/12/09 00:57:32;;;;;;;22.63;15.00;;;;;;;4.20;100.00;152441.84;5048791;28;20462;-81
2023/12/09 00:59:58;;;;;;;17.40;13.83;;;;;;;4.21;100.00;152444.41;5047608;28;20806;-81
2023/12/09 01:02:25;;;;;;;17.13;13.00;;;;;;;4.15;100.00;152428.97;5047820;28;20449;-80
2023/12/09 01:04:51;;;;;;;17.87;13.40;;;;;;;4.13;100.00;152423.84;5049696;28;20876;-81
2023/12/09 01:07:19;;;;;;;16.27;11.97;;;;;;;4.12;100.00;152421.25;5049628;28;20450;-80
2023/12/09 01:09:46;;;;;;;18.77;14.90;;;;;;;4.11;100.00;152418.66;5047615;28;20443;-80
2023/12/09 01:12:12;;;;;;;13.17;11.17;;;;;;;4.11;100.00;152419.94;5049999;28;20968;-81
2023/12/09 01:14:39;;;;;;;16.50;12.90;;;;;;;4.10;100.00;152417.34;5047489;28;20857;-81
2023/12/09 01:17:06;;;;;;;17.17;14.13;;;;;;;4.09;100.00;152414.81;5049063;28;20439;-81
2023/12/09 01:19:32;;;;;;;12.67;10.90;;;;;;;4.08;100.00;152410.91;5030245;28;20474;-81
2023/12/09 01:21:59;;;;;;;13.63;11.30;;;;;;;4.08;100.00;152410.91;5043026;28;20458;-81
2023/12/09 01:24:27;;;;;;;16.50;11.40;;;;;;;4.07;100.00;152409.66;5064992;28;20450;-81
2023/12/09 01:26:53;;;;;;;16.07;12.47;;;;;;;4.07;100.00;152408.38;5061757;28;20459;-81
2023/12/09 01:29:20;;;;;;;15.47;12.40;;;;;;;4.09;100.00;152413.50;5047454;28;20454;-81
2023/12/09 01:31:46;;;;;;;13.83;11.73;;;;;;;4.10;100.00;152417.34;5048343;28;20805;-81
2023/12/09 01:34:13;;;;;;;16.23;12.53;;;;;;;4.12;100.00;152422.53;5048876;28;20446;-81
2023/12/09 01:36:39;;;;;;;16.90;12.90;;;;;;;4.10;100.00;152416.09;5035346;28;20478;-80
2023/12/09 01:39:06;;;;;;;15.97;11.77;;;;;;;4.13;100.00;152423.84;5044252;28;20474;-81
2023/12/09 01:41:34;;;;;;;15.33;11.37;;;;;;;4.11;100.00;152418.66;5050187;28;20450;-81
2023/12/09 01:43:59;;;;;;;13.40;10.50;;;;;;;4.11;100.00;152418.66;5031290;28;20508;-81
2023/12/09 01:46:26;;;;;;;18.30;12.80;;;;;;;4.15;100.00;152428.97;5029483;28;20495;-82
2023/12/09 01:48:52;;;;;;;15.50;12.03;;;;;;;4.16;100.00;152431.53;5031561;28;20225;-82
2023/12/09 01:51:19;;;;;;;17.13;11.20;;;;;;;4.14;100.00;152426.38;5049154;28;20565;-81
2023/12/09 01:53:46;;;;;;;16.07;11.00;;;;;;;4.19;100.00;152439.25;5032800;28;20447;-81
2023/12/09 01:56:14;;;;;;;14.83;11.83;;;;;;;4.23;100.00;152449.59;5030395;28;20450;-80
2023/12/09 01:58:42;;;;;;;12.97;9.13;;;;;;;4.22;100.00;152447.00;5032298;28;20829;-81
2023/12/09 02:01:09;;;;;;;15.10;11.57;;;;;;;4.25;100.00;152454.72;5038092;28;20504;-80
2023/12/09 02:03:35;;;;;;;16.97;11.20;;;;;;;4.25;100.00;152456.03;5032463;28;20450;-81
2023/12/09 02:06:02;;;;;;;15.80;10.90;;;;;;;4.23;100.00;152450.88;5050726;28;20447;-81
2023/12/09 02:08:33;;;;;;;16.60;11.80;;;;;;;4.22;100.00;152448.28;5032433;28;20945;-81
2023/12/09 02:11:09;;;;;;;15.03;12.10;;;;;;;4.23;100.00;152449.59;5062600;28;20453;-81
2023/12/09 02:13:44;;;;;;;15.17;11.40;;;;;;;4.24;100.00;152452.13;5020107;28;20455;-81
2023/12/09 02:16:12;;;;;;;14.63;10.77;;;;;;;4.27;100.00;152461.16;5049002;28;20474;-80
2023/12/09 02:18:40;;;;;;;16.70;11.87;;;;;;;4.27;100.00;152459.88;5014764;28;20471;-81
2023/12/09 02:21:07;;;;;;;18.70;12.00;;;;;;;4.25;100.00;152454.72;5017195;28;20452;-80
2023/12/09 02:23:34;;;;;;;14.90;10.70;;;;;;;4.25;100.00;152454.72;5044830;28;20796;-74
2023/12/09 02:26:06;;;;;;;14.00;10.37;;;;;;;4.26;100.00;152457.31;5048486;28;20957;-74
2023/12/09 02:28:32;;;;;;;13.53;10.33;;;;;;;4.29;100.00;152465.00;5045340;28;20466;-75
2023/12/09 02:31:04;;;;;;;14.40;10.50;;;;;;;4.28;100.00;152462.47;5029874;28;20980;-75
2023/12/09 02:33:31;;;;;;;14.97;10.10;;;;;;;4.27;100.00;152461.16;5016483;28;20995;-74
2023/12/09 02:36:00;;;;;;;16.20;11.37;;;;;;;4.26;100.00;152457.31;5044603;28;20471;-75
2023/12/09 02:38:28;;;;;;;16.70;11.17;;;;;;;4.28;100.00;152462.47;5045977;28;20913;-74
2023/12/09 02:40:56;;;;;;;16.10;10.60;;;;;;;4.30;100.00;152467.59;5013351;28;20457;-75
2023/12/09 02:43:22;;;;;;;13.13;10.00;;;;;;;4.31;100.00;152471.44;5047855;28;20443;-75
2023/12/09 02:45:49;;;;;;;14.90;10.50;;;;;;;4.31;100.00;152470.19;5048279;28;20478;-74
2023/12/09 02:48:15;;;;;;;14.23;10.03;;;;;;;4.30;100.00;152467.59;5042927;28;20454;-74
2023/12/09 02:50:42;;;;;;;13.27;10.30;;;;;;;4.31;100.00;152471.44;5047352;28;20447;-74
2023/12/09 02:53:08;;;;;;;12.07;9.67;;;;;;;4.32;100.00;152474.03;5020763;28;20465;-74
2023/12/09 02:55:35;;;;;;;14.23;11.37;;;;;;;4.31;100.00;152470.19;5048853;28;20443;-74
2023/12/09 02:58:03;;;;;;;11.83;9.70;;;;;;;4.30;100.00;152468.91;5043763;28;20852;-75
2023/12/09 03:00:30;;;;;;;12.37;10.07;;;;;;;4.33;100.00;152475.34;5046375;28;20553;-75
2023/12/09 03:02:56;;;;;;;13.13;9.33;;;;;;;4.35;100.00;152479.19;5030445;28;20478;-75
2023/12/09 03:05:23;;;;;;;13.17;9.80;;;;;;;4.32;100.00;152474.03;5027465;28;20450;-75
2023/12/09 03:07:49;;;;;;;13.50;9.30;;;;;;;4.30;100.00;152467.59;5044933;28;20451;-75
2023/12/09 03:10:16;;;;;;;11.70;9.20;;;;;;;4.30;100.00;152468.91;5044708;28;20830;-75
2023/12/09 03:12:42;;;;;;;10.67;8.50;;;;;;;4.26;100.00;152457.31;5045734;28;20504;-74
2023/12/09 03:15:11;;;;;;;13.20;9.00;;;;;;;4.26;100.00;152457.31;5027961;28;20462;-74
2023/12/09 03:17:37;;;;;;;12.17;8.47;;;;;;;4.30;100.00;152467.59;5029211;28;20868;-75
2023/12/09 03:20:08;;;;;;;10.53;8.43;;;;;;;4.25;100.00;152454.72;5026662;28;20557;-74
2023/12/09 03:22:34;;;;;;;11.23;8.03;;;;;;;4.23;100.00;152449.59;5027445;28;20980;-75
2023/12/09 03:25:01;;;;;;;9.90;7.90;;;;;;;4.22;100.00;152447.00;5047341;28;20509;-75
2023/12/09 03:27:28;;;;;;;11.70;8.50;;;;;;;4.22;100.00;152448.28;5047256;28;20453;-75
2023/12/09 03:29:54;;;;;;;12.30;8.10;;;;;;;4.25;100.00;152454.72;5045142;28;20462;-75
2023/12/09 03:32:22;;;;;;;11.40;8.43;;;;;;;4.25;100.00;152456.03;5045338;28;20508;-75
2023/12/09 03:34:49;;;;;;;13.30;9.30;;;;;;;4.29;100.00;152466.31;5047653;28;20478;-76
2023/12/09 03:37:15;;;;;;;10.37;8.20;;;;;;;4.32;100.00;152472.75;5047346;28;20435;-75
2023/12/09 03:39:42;;;;;;;9.77;7.63;;;;;;;4.32;100.00;152474.03;5023420;28;20488;-75
2023/12/09 03:42:08;;;;;;;9.77;6.93;;;;;;;4.33;100.00;152475.34;5047282;28;21040;-75
2023/12/09 03:44:35;;;;;;;8.67;7.30;;;;;;;4.29;100.00;152465.00;5028466;28;20442;-76
2023/12/09 03:47:01;;;;;;;10.00;7.87;;;;;;;4.27;100.00;152459.88;5046754;28;20556;-76
2023/12/09 03:49:29;;;;;;;12.83;8.37;;;;;;;4.34;100.00;152476.63;5026441;28;20453;-76
2023/12/09 03:51:55;;;;;;;11.00;8.40;;;;;;;4.37;100.00;152485.63;5047688;28;20450;-75
2023/12/09 03:54:22;;;;;;;9.80;7.90;;;;;;;4.37;100.00;152484.38;5028041;28;20469;-76
2023/12/09 03:56:49;;;;;;;10.20;8.00;;;;;;;4.32;100.00;152474.03;5048000;28;20438;-76
2023/12/09 03:59:15;;;;;;;17.43;7.87;;;;;;;4.31;100.00;152470.19;5046028;28;20956;-75
2023/12/09 04:01:47;;;;;;;10.10;7.40;;;;;;;4.26;100.00;152458.56;5029340;28;20746;-75
2023/12/09 04:04:14;;;;;;;9.00;7.20;;;;;;;4.22;100.00;152447.00;5010609;28;20472;-76
2023/12/09 04:06:42;;;;;;;12.27;7.33;;;;;;;4.17;100.00;152434.13;5029322;28;20536;-76
2023/12/09 04:09:09;;;;;;;10.40;7.13;;;;;;;4.16;100.00;152431.53;5047433;28;20538;-76
2023/12/09 04:11:36;;;;;;;10.57;8.17;;;;;;;4.10;100.00;152416.09;5048256;28;20445;-75
2023/12/09 04:14:02;;;;;;;9.10;6.90;;;;;;;4.09;100.00;152414.81;5029185;28;20457;-76
2023/12/09 04:16:29;;;;;;;11.83;8.03;;;;;;;4.08;100.00;152410.91;5047604;28;20452;-75
2023/12/09 04:18:55;;;;;;;10.07;6.80;;;;;;;4.07;100.00;152408.38;5029554;28;20483;-75
2023/12/09 04:21:22;;;;;;;11.83;7.60;;;;;;;4.05;100.00;152403.22;5045057;28;20462;-74
2023/12/09 04:23:50;;;;;;;8.60;6.27;;;;;;;4.01;100.00;152392.91;5040362;28;20554;-75
2023/12/09 04:26:16;;;;;;;10.60;6.60;;;;;;;3.97;100.00;152382.63;5027750;28;20971;-75
2023/12/09 04:28:43;;;;;;;9.83;6.73;;;;;;;3.91;100.00;152368.47;5046458;28;20454;-75
2023/12/09 04:31:10;;;;;;;9.47;6.50;;;;;;;3.87;100.00;152358.13;5048506;28;20840;-75
2023/12/09 04:33:36;;;;;;;7.97;6.00;;;;;;;3.87;100.00;152356.81;5051352;28;20451;-76
2023/12/09 04:36:03;;;;;;;13.30;7.10;;;;;;;3.85;100.00;152351.69;5049342;28;20478;-75
2023/12/09 04:38:30;;;;;;;9.60;6.67;;;;;;;3.85;100.00;152351.69;5031189;28;20600;-75
2023/12/09 04:40:58;;;;;;;6.60;5.13;;;;;;;3.81;100.00;152341.41;5049990;28;20528;-75
2023/12/09 04:43:24;;;;;;;6.30;5.70;;;;;;;3.80;100.00;152340.13;5049974;28;20885;-75
2023/12/09 04:45:52;;;;;;;8.17;5.87;;;;;;;3.82;100.00;152343.97;5050800;28;20443;-75
2023/12/09 04:48:18;;;;;;;8.13;5.83;;;;;;;3.85;100.00;152351.69;5048510;28;20454;-75
2023/12/09 04:50:45;;;;;;;7.47;5.90;;;;;;;3.86;100.00;152354.28;5049546;28;20459;-75
2023/12/09 04:53:11;;;;;;;10.80;6.40;;;;;;;3.88;100.00;152359.44;5030962;28;20454;-75
2023/12/09 04:55:38;;;;;;;7.73;5.83;;;;;;;3.89;100.00;152363.25;5049487;28;20451;-75
2023/12/09 04:58:06;;;;;;;8.17;6.27;;;;;;;3.92;100.00;152369.75;5045992;28;20500;-75
2023/12/09 05:00:32;;;;;;;8.93;6.17;;;;;;;3.96;100.00;152380.03;5028747;28;20470;-75
2023/12/09 05:02:59;;;;;;;7.13;6.23;;;;;;;3.92;100.00;152371.00;5049733;28;20828;-75
2023/12/09 05:05:26;;;;;;;7.40;6.07;;;;;;;3.94;100.00;152376.19;5047746;28;20892;-75
2023/12/09 05:07:52;;;;;;;6.77;5.07;;;;;;;3.99;100.00;152387.75;5046071;28;20984;-75
2023/12/09 05:10:19;;;;;;;7.43;6.03;;;;;;;4.02;100.00;152395.50;5039015;28;20446;-75
2023/12/09 05:12:46;;;;;;;7.70;5.13;;;;;;;4.04;100.00;152400.63;5041703;28;20808;-75
2023/12/09 05:15:13;;;;;;;6.80;5.63;;;;;;;4.03;100.00;152398.03;5013876;28;20447;-75
2023/12/09 05:17:40;;;;;;;7.33;5.63;;;;;;;4.04;100.00;152400.63;5048322;28;20431;-75
2023/12/09 05:20:09;;;;;;;8.70;6.00;;;;;;;4.06;100.00;152405.78;5029932;28;20459;-75
2023/12/09 05:22:36;;;;;;;10.10;6.50;;;;;;;4.06;100.00;152405.78;5062164;28;20454;-75
2023/12/09 05:25:04;;;;;;;6.60;5.73;;;;;;;4.05;100.00;152404.47;5045322;28;20461;-75
2023/12/09 05:27:31;;;;;;;8.00;5.00;;;;;;;4.04;100.00;152400.63;5041641;28;21260;-75
2023/12/09 05:29:58;;;;;;;7.20;5.00;;;;;;;4.02;100.00;152396.78;5050025;28;20518;-75
2023/12/09 05:32:26;;;;;;;7.33;5.03;;;;;;;4.02;100.00;152395.50;5029330;28;20447;-75
2023/12/09 05:34:52;;;;;;;8.40;5.40;;;;;;;4.02;100.00;152396.78;5049107;28;20525;-75
2023/12/09 05:37:19;;;;;;;9.07;4.83;;;;;;;4.01;100.00;152394.19;5037265;28;20451;-75
2023/12/09 05:39:45;;;;;;;8.73;5.30;;;;;;;4.01;100.00;152394.19;5013529;28;21010;-75
2023/12/09 05:42:12;;;;;;;8.63;5.37;;;;;;;4.00;100.00;152391.59;5011580;28;20452;-75
2023/12/09 05:44:39;;;;;;;7.33;4.67;;;;;;;4.00;100.00;152390.31;5028878;28;20471;-75
2023/12/09 05:47:05;;;;;;;6.13;5.13;;;;;;;4.02;100.00;152395.50;5012118;28;20740;-74
2023/12/09 05:49:33;;;;;;;8.73;5.60;;;;;;;4.04;100.00;152400.63;5036405;28;20462;-75
2023/12/09 05:51:59;;;;;;;6.87;4.67;;;;;;;4.05;100.00;152403.22;5031514;28;20873;-75
2023/12/09 05:54:26;;;;;;;7.13;5.60;;;;;;;4.04;100.00;152401.94;5030021;28;20494;-75
2023/12/09 05:56:53;;;;;;;8.03;5.13;;;;;;;4.02;100.00;152396.78;5030429;28;21191;-75
2023/12/09 05:59:19;;;;;;;7.13;4.73;;;;;;;4.03;100.00;152399.34;5027164;28;20459;-75
2023/12/09 06:01:46;;;;;;;10.00;6.00;;;;;;;4.04;100.00;152400.63;5027743;28;20463;-75
2023/12/09 06:04:12;;;;;;;6.70;4.80;;;;;;;4.05;100.00;152403.22;5021479;28;20533;-74
2023/12/09 06:06:41;;;;;;;5.90;5.30;;;;;;;4.03;100.00;152399.34;5017651;28;20507;-75
2023/12/09 06:09:09;;;;;;;9.63;5.50;;;;;;;4.03;100.00;152398.03;5016681;28;20463;-75
2023/12/09 06:11:35;;;;;;;8.60;5.50;;;;;;;4.03;100.00;152399.34;4983047;28;21125;-75
2023/12/09 06:14:02;;;;;;;7.90;5.00;;;;;;;4.06;100.00;152405.78;5019698;28;20463;-75
2023/12/09 06:16:28;;;;;;;9.20;5.00;;;;;;;4.05;100.00;152403.22;5014515;28;20459;-75
2023/12/09 06:18:58;;;;;;;8.87;5.60;;;;;;;4.05;100.00;152403.22;5021223;28;20456;-75
2023/12/09 06:21:30;;;;;;;6.47;5.10;;;;;;;4.05;100.00;152403.22;5019496;28;20479;-74
2023/12/09 06:23:57;;;;;;;6.83;4.47;;;;;;;4.05;100.00;152403.22;5013048;28;20448;-75
2023/12/09 06:26:24;;;;;;;8.00;4.50;;;;;;;4.08;100.00;152410.91;5019229;28;20895;-75
2023/12/09 06:28:51;;;;;;;4.73;4.10;;;;;;;4.07;100.00;152408.38;5015583;28;20464;-74
2023/12/09 06:31:18;;;;;;;4.43;3.80;;;;;;;4.10;100.00;152416.09;5014630;28;20449;-75
2023/12/09 06:33:46;;;;;;;5.30;4.17;;;;;;;4.13;100.00;152425.09;5014605;28;20456;-75
2023/12/09 06:36:12;;;;;;;6.40;4.37;;;;;;;4.10;100.00;152417.34;5041576;28;20821;-74
2023/12/09 06:38:39;;;;;;;8.23;4.63;;;;;;;4.10;100.00;152417.34;5037250;28;20490;-74
2023/12/09 06:41:07;;;;;;;5.73;3.70;;;;;;;4.14;100.00;152426.38;5031369;28;20489;-74
2023/12/09 06:43:34;;;;;;;4.57;4.00;;;;;;;4.12;100.00;152421.25;5034616;28;20521;-74
2023/12/09 06:46:01;;;;;;;12.10;4.40;;;;;;;4.14;100.00;152426.38;5040833;28;20450;-75
2023/12/09 06:48:27;;;;;;;4.77;3.23;;;;;;;4.15;100.00;152428.97;5032828;28;20465;-75
2023/12/09 06:50:56;;;;;;;3.97;3.50;;;;;;;4.13;100.00;152425.09;5039098;28;20467;-75
2023/12/09 06:53:22;;;;;;;8.50;3.73;;;;;;;4.14;100.00;152426.38;5041223;28;20465;-75
2023/12/09 06:55:49;;;;;;;4.90;3.10;;;;;;;4.14;100.00;152427.69;5036763;28;20461;-75
2023/12/09 06:58:17;;;;;;;4.57;3.57;;;;;;;4.10;100.00;152417.34;5036231;28;20462;-75
2023/12/09 07:00:43;;;;;;;5.03;3.20;;;;;;;4.12;100.00;152421.25;5034579;28;21004;-74
2023/12/09 07:03:11;;;;;;;4.27;3.57;;;;;;;4.12;100.00;152421.25;5037137;28;20447;-74
2023/12/09 07:05:37;;;;;;;4.10;3.13;;;;;;;4.11;100.00;152419.94;5039105;28;20447;-74
2023/12/09 07:08:04;;;;;;;3.77;3.47;;;;;;;4.16;100.00;152431.53;5035426;28;20442;-74
2023/12/09 07:10:31;;;;;;;4.73;3.20;;;;;;;4.17;100.00;152435.41;5032680;28;20573;-74
2023/12/09 07:12:57;;;;;;;3.60;3.27;;;;;;;4.18;100.00;152436.72;5033214;28;20445;-74
2023/12/09 07:15:26;;;;;;;4.40;3.30;;;;;;;4.19;100.00;152439.25;5035822;28;20459;-74
2023/12/09 07:17:52;;;;;;;7.03;3.20;;;;;;;4.23;100.00;152450.88;5051376;28;20453;-74
2023/12/09 07:20:20;;;;;;;4.93;3.40;;;;;;;4.23;100.00;152449.59;5036880;28;20487;-74
2023/12/09 07:22:48;;;;;;;5.20;3.00;;;;;;;4.25;100.00;152454.72;5036303;22;20500;-83
2023/12/09 07:25:37;;;;;;;4.77;3.80;;;;;;;4.26;100.00;152457.31;5001032;28;20456;-83
2023/12/09 07:28:13;;;;;;;5.10;3.37;;;;;;;4.27;100.00;152459.88;5004000;28;20559;-83
2023/12/09 07:30:42;;;;;;;6.40;3.23;;;;;;;4.29;100.00;152465.00;4987100;28;20460;-83
2023/12/09 07:33:14;;;;;;;4.13;3.07;;;;;;;4.30;100.00;152468.91;4996820;28;21067;-83
2023/12/09 07:35:42;;;;;;;3.57;3.00;;;;;;;4.32;100.00;152474.03;5004568;28;20463;-82
2023/12/09 07:38:10;;;;;;;5.87;3.57;;;;;;;4.35;100.00;152480.47;4989097;28;20818;-83
2023/12/09 07:40:38;;;;;;;5.00;3.67;;;;;;;4.34;100.00;152477.94;4986020;28;20671;-75
2023/12/09 07:43:06;;;;;;;5.67;3.00;;;;;;;4.31;100.00;152471.44;5019363;28;20610;-75
2023/12/09 07:45:33;;;;;;;3.77;3.00;;;;;;;4.37;100.00;152485.63;5002969;28;20982;-75
2023/12/09 07:48:01;;;;;;;3.10;2.67;;;;;;;4.38;100.00;152488.22;5004451;28;20452;-75
2023/12/09 07:50:27;;;;;;;4.20;2.70;;;;;;;4.38;100.00;152486.91;5003694;28;20460;-74
2023/12/09 07:52:54;;;;;;;5.40;3.33;;;;;;;4.43;100.00;152499.78;4987493;28;20452;-74
2023/12/09 07:55:21;;;;;;;4.40;3.20;;;;;;;4.45;100.00;152506.22;5004829;28;20441;-75
2023/12/09 07:57:48;;;;;;;5.70;3.07;;;;;;;4.48;100.00;152513.97;5005225;28;20444;-75
2023/12/09 08:00:18;;;;;;;8.73;3.80;;;;;;;4.52;100.00;152524.28;5004427;28;20468;-75
2023/12/09 08:02:44;;;;;;;4.47;3.70;;;;;;;4.56;100.00;152533.28;5047983;22;20457;-74
2023/12/09 08:05:12;;;;;;;5.97;4.10;;;;;;;4.57;100.00;152537.19;5025845;28;20462;-75
2023/12/09 08:07:39;;;;;;;5.27;4.33;;;;;;;4.57;100.00;152537.19;5027075;28;20517;-75
2023/12/09 08:10:06;;;;;;;4.90;4.03;;;;;;;4.60;100.00;152544.91;5028028;28;20454;-75
2023/12/09 08:12:33;;;;;;;4.10;3.23;;;;;;;4.61;100.00;152547.47;5028592;28;20558;-75
2023/12/09 08:14:59;;;;;;;4.60;3.90;;;;;;;4.60;100.00;152544.91;5028190;28;20776;-75
2023/12/09 08:17:26;;;;;;;4.97;3.70;;;;;;;4.65;100.00;152556.50;5028598;28;20486;-75
2023/12/09 08:19:53;;;;;;;6.60;4.80;;;;;;;4.68;100.00;152564.22;5027081;28;20798;-75
2023/12/09 08:22:21;;;;;;;6.00;4.60;;;;;;;4.71;100.00;152571.97;5043156;28;20456;-75
2023/12/09 08:24:48;;;;;;;4.47;3.90;;;;;;;4.72;100.00;152575.81;5043248;28;20451;-74
2023/12/09 08:27:14;;;;;;;6.20;4.60;;;;;;;4.76;100.00;152584.84;5026616;28;20466;-74
2023/12/09 08:29:41;;;;;;;5.30;4.80;;;;;;;4.77;100.00;152587.41;5028306;28;20458;-74
2023/12/09 08:32:09;;;;;;;6.23;4.90;;;;;;;4.76;100.00;152586.16;5043966;28;20479;-75
2023/12/09 08:34:35;;;;;;;9.50;4.83;;;;;;;4.77;100.00;152587.41;5042937;28;20727;-75
2023/12/09 08:37:02;;;;;;;5.77;4.47;;;;;;;4.78;100.00;152590.00;5002756;28;20466;-75
2023/12/09 08:39:30;;;;;;;6.23;4.60;;;;;;;4.77;100.00;152588.69;5028155;28;20618;-75
2023/12/09 08:41:57;;;;;;;6.13;5.53;;;;;;;4.76;100.00;152586.16;5026469;28;20537;-75
2023/12/09 08:44:23;;;;;;;9.47;5.00;;;;;;;4.78;100.00;152591.28;5028320;28;20459;-75
2023/12/09 08:46:51;;;;;;;8.47;4.80;;;;;;;4.83;100.00;152604.16;5027202;28;20470;-75
2023/12/09 08:49:18;;;;;;;5.30;4.63;;;;;;;4.85;100.00;152609.31;5026765;28;20475;-76
2023/12/09 08:51:47;;;;;;;5.27;4.27;;;;;;;4.87;100.00;152613.22;5038081;28;20572;-75
2023/12/09 08:54:14;;;;;;;6.00;4.70;;;;;;;4.90;100.00;152620.91;5024725;28;20447;-75
2023/12/09 08:56:42;;;;;;;5.47;4.50;;;;;;;4.95;100.00;152632.53;5034560;28;20455;-75
2023/12/09 08:59:10;;;;;;;9.10;5.40;;;;;;;4.98;100.00;152640.28;5026355;28;20486;-75
2023/12/09 09:01:37;;;;;;;6.00;5.10;;;;;;;5.00;100.00;152645.41;5024941;28;20610;-75
2023/12/09 09:04:04;;;;;;;6.10;5.10;;;;;;;5.02;100.00;152650.56;5028441;28;20577;-75
2023/12/09 09:06:31;;;;;;;6.20;4.87;;;;;;;5.04;100.00;152657.00;5046686;28;20458;-75
2023/12/09 09:08:57;;;;;;;8.73;5.00;;;;;;;5.08;100.00;152666.03;5022475;28;20492;-75
2023/12/09 09:11:24;;;;;;;7.37;5.00;;;;;;;5.10;100.00;152672.47;5033193;28;20493;-75
2023/12/09 09:13:52;;;;;;;7.73;5.27;;;;;;;5.12;100.00;152677.63;5025317;28;20447;-75
2023/12/09 09:16:18;;;;;;;8.77;5.27;;;;;;;5.15;100.00;152684.06;5026215;28;20459;-75
2023/12/09 09:18:45;;;;;;;6.70;4.83;;;;;;;5.15;100.00;152685.38;5037223;28;20466;-75
2023/12/09 09:21:11;;;;;;;5.93;4.20;;;;;;;5.16;100.00;152686.66;5029378;28;20493;-75
2023/12/09 09:23:38;;;;;;;6.00;4.33;;;;;;;5.19;100.00;152695.66;5045427;28;20849;-75
2023/12/09 09:26:05;;;;;;;7.30;4.23;;;;;;;5.21;100.00;152699.56;5044083;28;20454;-75
2023/12/09 09:28:32;;;;;;;5.03;4.10;;;;;;;5.23;100.00;152706.00;5033583;28;20459;-75
2023/12/09 09:30:59;;;;;;;6.47;4.27;;;;;;;5.24;100.00;152707.28;5036328;28;21000;-75
2023/12/09 09:33:26;;;;;;;5.50;4.13;;;;;;;5.27;100.00;152715.03;5045606;28;21106;-75
2023/12/09 09:35:54;;;;;;;5.40;4.60;;;;;;;5.28;100.00;152718.88;5044736;28;20450;-75
2023/12/09 09:38:21;;;;;;;5.87;4.70;;;;;;;5.27;100.00;152716.28;5047979;28;20490;-75
2023/12/09 09:40:47;;;;;;;5.03;3.80;;;;;;;5.29;100.00;152720.19;5046507;28;20489;-75
2023/12/09 09:43:20;;;;;;;5.80;3.80;;;;;;;5.32;100.00;152729.16;5028898;28;20557;-75
2023/12/09 09:45:48;;;;;;;7.27;4.10;;;;;;;5.34;100.00;152734.38;5028298;28;20451;-75
2023/12/09 09:48:17;;;;;;;6.57;4.37;;;;;;;5.34;100.00;152733.06;5046145;28;20459;-75
2023/12/09 09:50:45;;;;;;;4.80;3.80;;;;;;;5.36;100.00;152738.22;5044953;28;20450;-75
2023/12/09 09:53:13;;;;;;;4.90;3.50;;;;;;;5.38;100.00;152744.66;5035113;28;20964;-75
2023/12/09 09:55:40;;;;;;;6.80;4.53;;;;;;;5.42;100.00;152753.69;5044232;28;20459;-75
2023/12/09 09:58:07;;;;;;;4.60;3.70;;;;;;;5.45;100.00;152762.69;5028868;28;20903;-75
2023/12/09 10:00:34;;;;;;;8.83;5.07;;;;;;;5.49;100.00;152771.72;5027625;28;20485;-75
2023/12/09 10:03:00;;;;;;;4.83;4.40;;;;;;;5.52;100.00;152779.47;5046137;28;20494;-75
2023/12/09 10:05:28;;;;;;;4.17;3.77;;;;;;;5.55;100.00;152787.22;5044654;28;20479;-75
2023/12/09 10:07:56;;;;;;;4.47;3.70;;;;;;;5.56;100.00;152789.75;5027366;28;20458;-75
2023/12/09 10:10:22;;;;;;;5.23;4.07;;;;;;;5.59;100.00;152797.50;5025705;28;20447;-75
2023/12/09 10:12:49;;;;;;;6.20;4.07;;;;;;;5.59;100.00;152797.50;5027202;28;20462;-75
2023/12/09 10:15:17;;;;;;;4.93;3.30;;;;;;;5.59;100.00;152797.50;5045881;28;20443;-75
2023/12/09 10:17:43;;;;;;;4.60;4.20;;;;;;;5.65;100.00;152813.00;5044588;28;20446;-75
2023/12/09 10:20:10;;;;;;;5.63;4.07;;;;;;;5.67;100.00;152816.84;5046060;28;20451;-75
2023/12/09 10:22:39;;;;;;;4.43;3.87;;;;;;;5.70;100.00;152824.59;5040344;28;20587;-75
2023/12/09 10:25:07;;;;;;;4.93;4.13;;;;;;;5.76;100.00;152840.06;5034070;28;20458;-75
2023/12/09 10:27:33;;;;;;;6.80;4.50;;;;;;;5.80;100.00;152851.66;5045681;28;20936;-75
2023/12/09 10:30:00;;;;;;;6.77;4.20;;;;;;;5.82;100.00;152856.88;5045833;28;20508;-75
2023/12/09 10:32:27;;;;;;;5.77;4.20;;;;;;;5.85;100.00;152863.38;5045921;28;20965;-75
2023/12/09 10:34:53;;;;;;;5.63;4.10;;;;;;;5.87;100.00;152869.81;5027319;28;20462;-75
2023/12/09 10:37:21;;;;;;;4.10;3.70;;;;;;;5.88;100.00;152872.34;5034779;28;20486;-75
2023/12/09 10:39:50;;;;;;;4.30;3.90;;;;;;;5.92;100.00;152882.69;5026885;28;20482;-75
2023/12/09 10:42:17;;;;;;;5.17;3.97;;;;;;;5.95;100.00;152889.16;5043064;28;21042;-75
2023/12/09 10:44:43;;;;;;;8.13;4.80;;;;;;;5.98;100.00;152898.16;5043934;28;20952;-75
2023/12/09 10:47:10;;;;;;;5.10;4.40;;;;;;;6.05;100.00;152914.94;5040473;28;20944;-75
2023/12/09 10:49:37;;;;;;;4.97;4.20;;;;;;;6.11;100.00;152931.72;5034748;28;20455;-75
2023/12/09 10:52:05;;;;;;;6.10;5.00;;;;;;;6.16;100.00;152942.03;5042898;28;20460;-75
2023/12/09 10:54:31;;;;;;;5.47;4.90;;;;;;;6.19;100.00;152949.78;5042960;28;20504;-74
2023/12/09 10:56:59;;;;;;;4.97;4.43;;;;;;;6.20;100.00;152953.63;5009535;28;20478;-74
2023/12/09 10:59:25;;;;;;;5.60;4.53;;;;;;;6.21;100.00;152954.94;5033549;28;20470;-74
2023/12/09 11:01:52;;;;;;;7.53;5.20;;;;;;;6.24;100.00;152963.97;5043056;28;20544;-74
2023/12/09 11:04:18;;;;;;;5.27;4.77;;;;;;;6.27;100.00;152970.41;5044270;28;20479;-74
2023/12/09 11:06:46;;;;;;;5.10;4.60;;;;;;;6.28;100.00;152972.97;5024795;28;20528;-74
2023/12/09 11:09:14;;;;;;;6.90;5.47;;;;;;;6.33;100.00;152985.91;5042589;28;20918;-74
2023/12/09 11:11:42;;;;;;;5.80;4.40;;;;;;;6.36;100.00;152994.91;5031952;28;20545;-74
2023/12/09 11:14:11;;;;;;;5.83;4.50;;;;;;;6.35;100.00;152991.06;5042739;28;21342;-74
2023/12/09 11:16:41;;;;;;;5.23;4.40;;;;;;;6.39;100.00;153001.38;5044697;28;20462;-75
2023/12/09 11:19:14;;;;;;;5.73;4.67;;;;;;;6.41;100.00;153006.53;5037939;28;20488;-75